createdAt,value
2019-03-24T00:01:27.020Z,6.70
2019-03-24T00:06:29.406Z,6.40
2019-03-24T00:11:30.899Z,6.30
2019-03-24T00:16:33.158Z,6.20
2019-03-24T00:21:34.665Z,6.20
2019-03-24T00:26:36.686Z,6.10
2019-03-24T00:31:38.264Z,6.00
2019-03-24T00:36:39.743Z,5.90
2019-03-24T00:41:41.618Z,5.70
2019-03-24T00:46:44.623Z,5.80
2019-03-24T00:51:46.099Z,5.80
2019-03-24T00:56:47.888Z,5.80
2019-03-24T01:01:49.739Z,5.60
2019-03-24T01:06:51.822Z,5.50
2019-03-24T01:11:53.584Z,5.30
2019-03-24T01:16:55.818Z,5.30
2019-03-24T01:21:57.378Z,5.20
2019-03-24T01:26:58.850Z,5.20
2019-03-24T01:32:00.770Z,5.00
2019-03-24T01:37:02.342Z,4.90
2019-03-24T01:42:04.744Z,4.80
2019-03-24T01:47:06.220Z,4.70
2019-03-24T01:52:08.243Z,4.70
2019-03-24T01:57:10.063Z,4.70
2019-03-24T02:02:11.570Z,4.60
2019-03-24T02:07:13.573Z,4.40
2019-03-24T02:12:15.203Z,4.50
2019-03-24T02:17:17.448Z,4.40
2019-03-24T02:22:18.924Z,4.30
2019-03-24T02:27:21.358Z,4.10
2019-03-24T02:32:22.906Z,4.00
2019-03-24T02:37:25.041Z,3.90
2019-03-24T02:42:26.660Z,3.70
2019-03-24T02:47:28.148Z,3.70
2019-03-24T02:52:29.622Z,3.60
2019-03-24T02:57:32.300Z,3.50
2019-03-24T03:02:33.972Z,3.30
2019-03-24T03:07:35.428Z,3.30
2019-03-24T03:12:37.121Z,3.30
2019-03-24T03:17:38.575Z,3.20
2019-03-24T03:22:40.164Z,3.10
2019-03-24T03:27:41.718Z,3.00
2019-03-24T03:32:43.231Z,3.00
2019-03-24T03:37:44.812Z,2.80
2019-03-24T03:42:46.579Z,2.80
2019-03-24T03:47:48.093Z,2.60
2019-03-24T03:52:49.872Z,2.70
2019-03-24T03:57:51.722Z,2.60
2019-03-24T04:02:53.337Z,2.70
2019-03-24T04:07:55.149Z,2.60
2019-03-24T04:12:56.619Z,2.60
2019-03-24T04:17:58.273Z,2.30
2019-03-24T04:22:59.753Z,2.40
2019-03-24T04:28:01.232Z,2.30
2019-03-24T04:33:02.818Z,2.20
2019-03-24T04:38:04.380Z,2.00
2019-03-24T04:43:06.343Z,1.90
2019-03-24T04:48:07.937Z,2.00
2019-03-24T04:53:09.776Z,1.90
2019-03-24T04:58:11.552Z,1.80
2019-03-24T05:03:13.438Z,1.60
2019-03-24T05:08:16.638Z,1.60
2019-03-24T05:13:18.110Z,1.60
2019-03-24T05:18:19.659Z,1.50
2019-03-24T05:23:21.461Z,1.70
2019-03-24T05:28:22.944Z,1.60
2019-03-24T05:33:24.899Z,1.70
2019-03-24T05:38:26.396Z,1.70
2019-03-24T05:43:27.935Z,1.70
2019-03-24T05:48:29.715Z,1.80
2019-03-24T05:53:31.179Z,1.90
2019-03-24T05:58:32.663Z,2.00
2019-03-24T06:03:34.194Z,2.20
2019-03-24T06:08:35.899Z,2.20
2019-03-24T06:13:37.564Z,2.40
2019-03-24T06:18:39.035Z,2.50
2019-03-24T06:23:40.986Z,2.70
2019-03-24T06:28:42.872Z,2.90
2019-03-24T06:33:44.368Z,3.10
2019-03-24T06:38:45.846Z,3.20
2019-03-24T06:43:47.395Z,3.40
2019-03-24T06:48:49.233Z,3.60
2019-03-24T06:53:50.701Z,3.80
2019-03-24T06:58:52.582Z,4.30
2019-03-24T07:03:54.351Z,4.70
2019-03-24T07:08:55.845Z,5.00
2019-03-24T07:13:57.319Z,5.30
2019-03-24T07:18:59.261Z,5.60
2019-03-24T07:24:00.745Z,5.80
2019-03-24T07:29:02.207Z,6.00
2019-03-24T07:34:03.685Z,6.00
2019-03-24T07:39:06.571Z,6.20
2019-03-24T07:44:08.117Z,6.30
2019-03-24T07:49:09.888Z,6.50
2019-03-24T07:54:11.683Z,6.70
2019-03-24T07:59:13.487Z,6.80
2019-03-24T08:04:15.195Z,6.90
2019-03-24T08:09:16.742Z,6.90
2019-03-24T08:14:18.464Z,7.20
2019-03-24T08:19:19.949Z,7.40
2019-03-24T08:24:21.357Z,7.50
2019-03-24T08:29:22.900Z,7.70
2019-03-24T08:34:24.875Z,7.60
2019-03-24T08:39:26.855Z,7.60
2019-03-24T08:44:28.794Z,7.40
2019-03-24T08:49:30.670Z,7.70
2019-03-24T08:54:32.152Z,8.00
2019-03-24T08:59:33.660Z,7.90
2019-03-24T09:04:35.222Z,8.20
2019-03-24T09:09:36.777Z,8.40
2019-03-24T09:14:38.602Z,8.40
2019-03-24T09:19:40.087Z,9.10
2019-03-24T09:24:41.591Z,9.20
2019-03-24T09:29:43.249Z,8.90
2019-03-24T09:34:44.738Z,9.00
2019-03-24T09:39:46.325Z,8.80
2019-03-24T09:44:47.861Z,9.30
2019-03-24T09:49:49.418Z,9.30
2019-03-24T09:54:50.900Z,9.70
2019-03-24T09:59:52.404Z,9.40
2019-03-24T10:04:54.967Z,10.20
2019-03-24T10:09:57.108Z,10.40
2019-03-24T10:14:58.566Z,10.60
2019-03-24T10:20:00.022Z,11.20
2019-03-24T10:25:01.673Z,11.30
2019-03-24T10:30:06.489Z,10.50
2019-03-24T10:35:09.070Z,10.20
2019-03-24T10:40:12.049Z,10.20
2019-03-24T10:45:14.478Z,9.80
2019-03-24T10:50:15.958Z,9.80
2019-03-24T10:55:17.657Z,9.80
2019-03-24T11:00:39.322Z,10.00
2019-03-24T11:05:41.221Z,11.20
2019-03-24T11:10:43.578Z,10.80
2019-03-24T11:15:45.456Z,11.50
2019-03-24T11:20:46.921Z,12.00
2019-03-24T11:25:48.491Z,12.40
2019-03-24T11:30:50.144Z,12.70
2019-03-24T11:35:51.930Z,12.10
2019-03-24T11:40:54.116Z,12.30
2019-03-24T11:45:56.109Z,12.30
2019-03-24T11:50:57.589Z,12.30
2019-03-24T11:55:59.591Z,12.10
2019-03-24T12:01:01.126Z,12.90
2019-03-24T12:06:13.659Z,12.90
2019-03-24T12:11:06.703Z,13.70
2019-03-24T12:16:08.507Z,12.40
2019-03-24T12:21:10.568Z,13.20
2019-03-24T12:26:12.490Z,12.90
2019-03-24T12:31:14.501Z,12.50
2019-03-24T12:36:16.076Z,12.90
2019-03-24T12:41:17.764Z,13.70
2019-03-24T12:46:19.358Z,14.30
2019-03-24T12:51:21.159Z,13.90
2019-03-24T12:56:23.083Z,14.40
2019-03-24T13:01:24.661Z,13.60
2019-03-24T13:06:26.767Z,13.30
2019-03-24T13:11:28.377Z,13.70
2019-03-24T13:16:30.019Z,13.20
2019-03-24T13:21:31.805Z,13.60
2019-03-24T13:26:34.630Z,13.60
2019-03-24T13:31:38.850Z,14.70
2019-03-24T13:36:41.245Z,13.90
2019-03-24T13:41:43.040Z,13.10
2019-03-24T13:46:44.498Z,12.50
2019-03-24T13:51:45.985Z,12.40
2019-03-24T13:56:47.938Z,12.30
2019-03-24T14:01:49.420Z,12.20
2019-03-24T14:06:51.011Z,11.90
2019-03-24T14:11:52.639Z,12.10
2019-03-24T14:16:54.315Z,11.90
2019-03-24T14:21:55.809Z,11.80
2019-03-24T14:26:57.283Z,11.60
2019-03-24T14:31:58.856Z,11.60
2019-03-24T14:37:00.458Z,11.50
2019-03-24T14:42:02.975Z,11.50
2019-03-24T14:47:04.789Z,11.50
2019-03-24T14:52:06.475Z,11.40
2019-03-24T14:57:08.045Z,11.40
2019-03-24T15:02:09.582Z,11.50
2019-03-24T15:07:11.539Z,11.40
2019-03-24T15:12:13.456Z,11.50
2019-03-24T15:17:15.604Z,11.30
2019-03-24T15:22:17.472Z,11.20
2019-03-24T15:27:19.055Z,11.00
2019-03-24T15:32:20.543Z,11.00
2019-03-24T15:37:22.007Z,11.00
2019-03-24T15:42:23.786Z,10.90
2019-03-24T15:47:25.634Z,10.70
2019-03-24T15:52:27.125Z,10.60
2019-03-24T15:57:29.069Z,10.60
2019-03-24T16:02:30.531Z,10.50
2019-03-24T16:07:32.366Z,10.50
2019-03-24T16:12:34.219Z,10.40
2019-03-24T16:17:35.709Z,10.30
2019-03-24T16:22:37.260Z,10.30
2019-03-24T16:27:38.954Z,10.20
2019-03-24T16:32:40.439Z,10.20
2019-03-24T16:37:42.361Z,9.90
2019-03-24T16:42:44.193Z,9.80
2019-03-24T16:47:46.082Z,9.70
2019-03-24T16:52:47.713Z,9.60
2019-03-24T16:57:49.943Z,9.40
2019-03-24T17:02:51.917Z,9.30
2019-03-24T17:07:53.395Z,9.10
2019-03-24T17:12:55.310Z,9.00
2019-03-24T17:17:56.974Z,8.90
2019-03-24T17:22:58.463Z,8.80
2019-03-24T17:28:00.010Z,8.60
2019-03-24T17:33:01.859Z,8.50
2019-03-24T17:38:03.605Z,8.30
2019-03-24T17:43:05.606Z,8.20
2019-03-24T17:48:07.187Z,8.10
2019-03-24T17:53:08.665Z,7.80
2019-03-24T17:58:10.506Z,7.70
2019-03-24T18:03:12.151Z,7.40
2019-03-24T18:08:13.954Z,7.00
2019-03-24T18:13:15.645Z,6.70
2019-03-24T18:18:17.215Z,6.30
2019-03-24T18:23:18.807Z,6.10
2019-03-24T18:28:20.584Z,5.90
2019-03-24T18:33:22.479Z,5.60
2019-03-24T18:38:24.281Z,5.30
2019-03-24T18:43:26.192Z,5.20
2019-03-24T18:48:27.683Z,5.10
2019-03-24T18:53:29.257Z,4.90
2019-03-24T18:58:32.028Z,4.80
2019-03-24T19:03:33.776Z,4.70
2019-03-24T19:08:35.258Z,4.50
2019-03-24T19:13:36.836Z,4.40
2019-03-24T19:18:38.390Z,4.30
2019-03-24T19:23:40.342Z,4.10
2019-03-24T19:28:42.014Z,4.00
2019-03-24T19:33:43.630Z,4.00
2019-03-24T19:38:45.498Z,3.80
2019-03-24T19:43:47.169Z,3.70
2019-03-24T19:48:48.810Z,3.70
2019-03-24T19:53:50.320Z,3.60
2019-03-24T19:58:52.168Z,3.40
2019-03-24T20:03:53.915Z,3.20
2019-03-24T20:08:55.430Z,3.20
2019-03-24T20:13:57.152Z,3.00
2019-03-24T20:18:58.687Z,3.00
2019-03-24T20:24:00.499Z,2.90
2019-03-24T20:29:02.008Z,2.90
2019-03-24T20:34:03.485Z,2.90
2019-03-24T20:39:08.179Z,2.80
2019-03-24T20:44:11.427Z,2.60
2019-03-24T20:49:13.471Z,2.60
2019-03-24T20:54:15.027Z,2.40
2019-03-24T20:59:16.947Z,2.30
2019-03-24T21:04:20.282Z,2.40
2019-03-24T21:09:22.333Z,2.20
2019-03-24T21:14:23.898Z,2.10
2019-03-24T21:19:25.496Z,2.00
2019-03-24T21:24:26.976Z,2.10
2019-03-24T21:29:28.565Z,2.10
2019-03-24T21:34:30.445Z,2.00
2019-03-24T21:39:32.247Z,1.90
2019-03-24T21:44:34.062Z,1.90
2019-03-24T21:49:35.593Z,1.90
2019-03-24T21:54:37.242Z,1.70
2019-03-24T21:59:38.720Z,1.70
2019-03-24T22:04:40.179Z,1.50
2019-03-24T22:09:41.672Z,1.60
2019-03-24T22:14:43.255Z,1.60
2019-03-24T22:19:45.078Z,1.70
2019-03-24T22:24:46.575Z,1.90
2019-03-24T22:29:48.056Z,1.80
2019-03-24T22:34:50.002Z,1.80
2019-03-24T22:39:51.485Z,1.50
2019-03-24T22:44:53.435Z,1.60
2019-03-24T22:49:55.168Z,1.50
2019-03-24T22:54:56.706Z,1.40
2019-03-24T22:59:59.469Z,1.20
2019-03-24T23:05:01.243Z,1.20
2019-03-24T23:10:04.759Z,1.30
2019-03-24T23:15:07.048Z,1.30
2019-03-24T23:20:09.138Z,1.40
2019-03-24T23:25:10.738Z,1.20
2019-03-24T23:30:13.042Z,1.20
2019-03-24T23:35:14.637Z,1.40
2019-03-24T23:40:16.216Z,1.40
2019-03-24T23:45:17.842Z,1.50
2019-03-24T23:50:19.399Z,1.60
2019-03-24T23:55:20.974Z,1.70
